Time;durP1;ratioP1;P1;durP2;ratioP2;P2;SDS_P1;SDS_P2;PMS_P1;PMS_P2;Temp;Humidity;BMP_temperature;BMP_pressure;BME280_temperature;BME280_humidity;BME280_pressure;Samples;Min_cycle;Max_cycle;Signal;HPM_P1;HPM_P2
2023/03/22 00:00:19;;;;;;;;;;;20.80;43.30;;;;;;3055386;19;4370;-25
2023/03/22 00:01:21;;;;;;;;;;;20.80;43.20;;;;;;3054675;19;6019;-25
2023/03/22 00:02:24;;;;;;;;;;;20.80;43.20;;;;;;3054462;19;4547;-25
2023/03/22 00:03:26;;;;;;;;;;;20.80;43.30;;;;;;3055661;19;4526;-25
2023/03/22 00:04:27;;;;;;;;;;;20.80;43.30;;;;;;3055816;19;4405;-25
2023/03/22 00:05:29;;;;;;;;;;;20.80;43.30;;;;;;3055663;19;4453;-25
2023/03/22 00:06:30;;;;;;;;;;;20.80;43.30;;;;;;3055315;19;4595;-25
2023/03/22 00:07:30;;;;;;;;;;;20.80;43.20;;;;;;3055019;19;4675;-25
2023/03/22 00:08:31;;;;;;;;;;;20.80;43.20;;;;;;3054919;19;4507;-25
2023/03/22 00:09:31;;;;;;;;;;;20.80;43.20;;;;;;3053324;19;4248;-25
2023/03/22 00:10:32;;;;;;;;;;;20.80;43.40;;;;;;3055876;19;5799;-25
2023/03/22 00:11:33;;;;;;;;;;;20.80;43.40;;;;;;3053808;19;4565;-25
2023/03/22 00:12:34;;;;;;;;;;;20.70;43.20;;;;;;3056163;19;4543;-25
2023/03/22 00:13:35;;;;;;;;;;;20.80;43.30;;;;;;3056846;19;4991;-25
2023/03/22 00:14:36;;;;;;;;;;;20.70;43.20;;;;;;3056407;19;4522;-25
2023/03/22 00:15:38;;;;;;;;;;;20.70;43.20;;;;;;3056475;19;4542;-25
2023/03/22 00:16:38;;;;;;;;;;;20.70;43.20;;;;;;3056072;19;4539;-25
2023/03/22 00:17:40;;;;;;;;;;;20.70;43.30;;;;;;3056069;19;4323;-25
2023/03/22 00:18:41;;;;;;;;;;;20.70;43.30;;;;;;3056500;19;4532;-25
2023/03/22 00:19:43;;;;;;;;;;;20.70;43.20;;;;;;3055227;19;4537;-25
2023/03/22 00:20:48;;;;;;;;;;;20.70;43.20;;;;;;3055515;19;4522;-25
2023/03/22 00:21:50;;;;;;;;;;;20.70;43.30;;;;;;3055463;19;4652;-25
2023/03/22 00:22:51;;;;;;;;;;;20.70;43.20;;;;;;3053775;19;4615;-25
2023/03/22 00:23:51;;;;;;;;;;;20.70;43.30;;;;;;3053421;19;5817;-25
2023/03/22 00:24:52;;;;;;;;;;;20.70;43.30;;;;;;3052812;19;4466;-25
2023/03/22 00:25:53;;;;;;;;;;;20.70;43.30;;;;;;3055409;19;4456;-25
2023/03/22 00:26:54;;;;;;;;;;;20.70;43.30;;;;;;3055416;19;4706;-25
2023/03/22 00:27:54;;;;;;;;;;;20.70;43.20;;;;;;3054038;19;4521;-25
2023/03/22 00:28:55;;;;;;;;;;;20.70;43.30;;;;;;3054384;19;4449;-25
2023/03/22 00:29:56;;;;;;;;;;;20.70;43.30;;;;;;3054211;19;4509;-25
2023/03/22 00:30:58;;;;;;;;;;;20.70;43.30;;;;;;3053649;19;4521;-25
2023/03/22 00:31:58;;;;;;;;;;;20.70;43.30;;;;;;3054854;19;4481;-25
2023/03/22 00:32:59;;;;;;;;;;;20.60;43.30;;;;;;3053469;19;4453;-24
2023/03/22 00:34:00;;;;;;;;;;;20.60;43.20;;;;;;3052839;19;4354;-25
2023/03/22 00:35:01;;;;;;;;;;;20.70;43.30;;;;;;3054959;19;4332;-25
2023/03/22 00:36:04;;;;;;;;;;;20.60;43.30;;;;;;3053113;19;5844;-25
2023/03/22 00:37:06;;;;;;;;;;;20.60;43.30;;;;;;3052847;19;4509;-25
2023/03/22 00:38:13;;;;;;;;;;;20.60;43.30;;;;;;3052301;19;4586;-26
2023/03/22 00:39:14;;;;;;;;;;;20.60;43.30;;;;;;3052521;19;4415;-25
2023/03/22 00:40:15;;;;;;;;;;;20.60;43.30;;;;;;3053312;19;4557;-25
2023/03/22 00:41:20;;;;;;;;;;;20.60;43.30;;;;;;3053768;19;5563;-25
2023/03/22 00:42:20;;;;;;;;;;;20.60;43.40;;;;;;3054763;19;4635;-25
2023/03/22 00:43:21;;;;;;;;;;;20.60;43.30;;;;;;3054662;19;4518;-25
2023/03/22 00:44:21;;;;;;;;;;;20.60;43.30;;;;;;3054704;19;4391;-25
2023/03/22 00:45:22;;;;;;;;;;;20.60;43.30;;;;;;3055195;19;5988;-25
2023/03/22 00:46:23;;;;;;;;;;;20.60;43.30;;;;;;3053875;19;4530;-25
2023/03/22 00:47:23;;;;;;;;;;;20.60;43.30;;;;;;3053805;19;4510;-25
2023/03/22 00:48:24;;;;;;;;;;;20.60;43.40;;;;;;3054894;19;4703;-25
2023/03/22 00:49:26;;;;;;;;;;;20.60;43.40;;;;;;3054142;19;4397;-25
2023/03/22 00:50:26;;;;;;;;;;;20.60;43.40;;;;;;3054011;19;4624;-25
2023/03/22 00:51:27;;;;;;;;;;;20.60;43.30;;;;;;3054792;19;4626;-25
2023/03/22 00:52:28;;;;;;;;;;;20.60;43.30;;;;;;3054252;19;4404;-24
2023/03/22 00:53:29;;;;;;;;;;;20.60;43.30;;;;;;3055287;19;4587;-25
2023/03/22 00:54:29;;;;;;;;;;;20.50;43.30;;;;;;3054445;19;4690;-25
2023/03/22 00:55:30;;;;;;;;;;;20.50;43.30;;;;;;3055464;19;4536;-25
2023/03/22 00:56:32;;;;;;;;;;;20.50;43.40;;;;;;3055991;19;5891;-25
2023/03/22 00:57:33;;;;;;;;;;;20.50;43.30;;;;;;3054929;19;4386;-25
2023/03/22 00:58:34;;;;;;;;;;;20.50;43.30;;;;;;3054099;19;4633;-25
2023/03/22 00:59:37;;;;;;;;;;;20.50;43.40;;;;;;3054566;19;4730;-25
2023/03/22 01:00:38;;;;;;;;;;;20.50;43.30;;;;;;3054661;19;5890;-25
2023/03/22 01:01:38;;;;;;;;;;;20.50;43.30;;;;;;3053964;19;4531;-25
2023/03/22 01:02:40;;;;;;;;;;;20.50;43.30;;;;;;3053471;19;4542;-25
2023/03/22 01:03:41;;;;;;;;;;;20.50;43.30;;;;;;3054922;19;4542;-24
2023/03/22 01:04:45;;;;;;;;;;;20.50;43.30;;;;;;3054836;19;4538;-25
2023/03/22 01:05:48;;;;;;;;;;;20.50;43.30;;;;;;3053573;19;5941;-25
2023/03/22 01:06:49;;;;;;;;;;;20.50;43.30;;;;;;3053601;19;4477;-24
2023/03/22 01:07:50;;;;;;;;;;;20.50;43.40;;;;;;3053398;19;4457;-25
2023/03/22 01:08:53;;;;;;;;;;;20.50;43.30;;;;;;3053779;19;4476;-24
2023/03/22 01:09:54;;;;;;;;;;;20.50;43.30;;;;;;3055399;19;4469;-31
2023/03/22 01:10:55;;;;;;;;;;;20.50;43.30;;;;;;3053270;19;4319;-31
2023/03/22 01:11:56;;;;;;;;;;;20.50;43.40;;;;;;3055216;19;4492;-31
2023/03/22 01:12:57;;;;;;;;;;;20.50;43.40;;;;;;3053682;19;5675;-30
2023/03/22 01:13:58;;;;;;;;;;;20.50;43.30;;;;;;3053708;19;5652;-31
2023/03/22 01:14:59;;;;;;;;;;;20.50;43.30;;;;;;3052939;19;4713;-31
2023/03/22 01:15:59;;;;;;;;;;;20.50;43.30;;;;;;3052692;19;4515;-31
2023/03/22 01:17:00;;;;;;;;;;;20.50;43.30;;;;;;3054173;19;4476;-31
2023/03/22 01:18:01;;;;;;;;;;;20.50;43.30;;;;;;3053409;19;4492;-31
2023/03/22 01:19:02;;;;;;;;;;;20.50;43.40;;;;;;3053229;19;4487;-31
2023/03/22 01:20:03;;;;;;;;;;;20.40;43.30;;;;;;3053191;19;4478;-31
2023/03/22 01:21:04;;;;;;;;;;;20.40;43.30;;;;;;3053970;19;4419;-31
2023/03/22 01:22:05;;;;;;;;;;;20.40;43.30;;;;;;3054112;19;4476;-31
2023/03/22 01:23:06;;;;;;;;;;;20.40;43.30;;;;;;3054526;19;5680;-31
2023/03/22 01:24:07;;;;;;;;;;;20.40;43.30;;;;;;3052078;19;4600;-30
2023/03/22 01:25:08;;;;;;;;;;;20.40;43.30;;;;;;3055322;19;923;-31
2023/03/22 01:26:08;;;;;;;;;;;20.40;43.30;;;;;;3053591;19;4334;-30
2023/03/22 01:27:10;;;;;;;;;;;20.40;43.30;;;;;;3054076;19;4437;-30
2023/03/22 01:28:11;;;;;;;;;;;20.40;43.40;;;;;;3054692;19;4768;-30
2023/03/22 01:29:11;;;;;;;;;;;20.40;43.30;;;;;;3051869;19;4554;-31
2023/03/22 01:30:12;;;;;;;;;;;20.40;43.30;;;;;;3053674;19;6551;-30
2023/03/22 01:31:13;;;;;;;;;;;20.40;43.30;;;;;;3054692;19;4540;-30
2023/03/22 01:32:13;;;;;;;;;;;20.40;43.30;;;;;;3052652;19;4365;-30
2023/03/22 01:33:14;;;;;;;;;;;20.40;43.40;;;;;;3054301;19;4538;-30
2023/03/22 01:34:15;;;;;;;;;;;20.40;43.40;;;;;;3055120;19;4116;-30
2023/03/22 01:35:15;;;;;;;;;;;20.40;43.30;;;;;;3052592;19;15766;-30
2023/03/22 01:36:16;;;;;;;;;;;20.40;43.40;;;;;;3052291;19;4492;-31
2023/03/22 01:37:17;;;;;;;;;;;20.40;43.50;;;;;;3053035;19;4465;-32
2023/03/22 01:38:18;;;;;;;;;;;20.40;43.40;;;;;;3053413;19;4333;-32
2023/03/22 01:39:19;;;;;;;;;;;20.40;43.40;;;;;;3054830;19;4529;-30
2023/03/22 01:40:19;;;;;;;;;;;20.40;43.40;;;;;;3053127;19;4485;-31
2023/03/22 01:41:20;;;;;;;;;;;20.40;43.50;;;;;;3054269;19;5827;-31
2023/03/22 01:42:21;;;;;;;;;;;20.30;43.30;;;;;;3052700;19;4371;-31
2023/03/22 01:43:22;;;;;;;;;;;20.30;43.40;;;;;;3054548;19;4544;-31
2023/03/22 01:44:23;;;;;;;;;;;20.30;43.40;;;;;;3053412;19;4335;-30
2023/03/22 01:45:40;;;;;;;;;;;20.30;43.40;;;;;;3053007;19;4384;-31
2023/03/22 01:46:42;;;;;;;;;;;20.30;43.30;;;;;;3052358;19;4493;-30
2023/03/22 01:47:48;;;;;;;;;;;20.30;43.40;;;;;;3052945;19;4500;-30
2023/03/22 01:48:49;;;;;;;;;;;20.30;43.40;;;;;;3054040;19;4590;-31
2023/03/22 01:49:49;;;;;;;;;;;20.30;43.30;;;;;;3052904;19;4484;-31
2023/03/22 01:50:58;;;;;;;;;;;20.30;43.30;;;;;;3052247;19;4484;-31
2023/03/22 01:52:05;;;;;;;;;;;20.30;43.40;;;;;;3053000;19;4481;-31
2023/03/22 01:53:06;;;;;;;;;;;20.30;43.40;;;;;;3051299;19;4381;-29
2023/03/22 01:54:09;;;;;;;;;;;20.30;43.70;;;;;;3051653;19;4472;-30
2023/03/22 01:55:10;;;;;;;;;;;20.30;43.40;;;;;;3052977;19;4503;-30
2023/03/22 01:56:10;;;;;;;;;;;20.30;43.40;;;;;;3053229;19;4409;-30
2023/03/22 01:57:11;;;;;;;;;;;20.30;43.40;;;;;;3054448;19;869;-31
2023/03/22 01:58:16;;;;;;;;;;;20.30;43.40;;;;;;3051138;19;5815;-30
2023/03/22 01:59:17;;;;;;;;;;;20.30;43.40;;;;;;3052630;19;4526;-31
2023/03/22 02:00:19;;;;;;;;;;;20.20;43.40;;;;;;3053588;19;6187;-30
2023/03/22 02:01:20;;;;;;;;;;;20.20;43.40;;;;;;3051557;19;4417;-25
2023/03/22 02:02:20;;;;;;;;;;;20.20;43.40;;;;;;3052762;19;4528;-25
2023/03/22 02:03:32;;;;;;;;;;;20.20;43.40;;;;;;3051808;19;4547;-25
2023/03/22 02:04:34;;;;;;;;;;;20.20;43.40;;;;;;3052356;19;5581;-25
2023/03/22 02:05:35;;;;;;;;;;;20.20;43.50;;;;;;3050332;19;4966;-25
2023/03/22 02:06:37;;;;;;;;;;;20.20;43.40;;;;;;3052583;19;4345;-25
2023/03/22 02:07:38;;;;;;;;;;;20.20;43.50;;;;;;3053436;19;4527;-25
2023/03/22 02:08:41;;;;;;;;;;;20.20;43.50;;;;;;3050761;19;5127;-25
2023/03/22 02:09:42;;;;;;;;;;;20.20;43.40;;;;;;3051895;19;4473;-25
2023/03/22 02:10:43;;;;;;;;;;;20.20;43.50;;;;;;3053444;19;4531;-25
2023/03/22 02:11:48;;;;;;;;;;;20.20;43.50;;;;;;3053030;19;5055;-24
2023/03/22 02:13:13;;;;;;;;;;;20.20;43.50;;;;;;3052199;19;4540;-25
2023/03/22 02:14:33;;;;;;;;;;;20.20;43.50;;;;;;3049342;19;5919;-25
2023/03/22 02:15:42;;;;;;;;;;;20.20;43.40;;;;;;3052116;19;4533;-25
2023/03/22 02:16:48;;;;;;;;;;;20.20;43.50;;;;;;3051826;19;4537;-25
2023/03/22 02:18:25;;;;;;;;;;;20.20;43.50;;;;;;3050420;19;5005;-24
2023/03/22 02:19:46;;;;;;;;;;;20.20;43.50;;;;;;2846835;19;2004315;-25
2023/03/22 02:21:02;;;;;;;;;;;20.20;43.50;;;;;;3050778;19;4363;-25
2023/03/22 02:22:26;;;;;;;;;;;20.20;43.50;;;;;;3051508;19;4550;-25
2023/03/22 02:23:46;;;;;;;;;;;20.10;43.50;;;;;;2849355;19;2004610;-25
2023/03/22 02:25:14;;;;;;;;;;;20.10;43.50;;;;;;3053712;19;4619;-25
2023/03/22 02:26:38;;;;;;;;;;;20.10;43.50;;;;;;3052335;19;4533;-25
2023/03/22 02:28:16;;;;;;;;;;;20.10;43.50;;;;;;3053733;19;4654;-25
2023/03/22 02:29:25;;;;;;;;;;;20.20;43.60;;;;;;3051997;19;4783;-25
2023/03/22 02:30:47;;;;;;;;;;;20.10;43.90;;;;;;3050711;19;4682;-25
2023/03/22 02:32:06;;;;;;;;;;;20.20;43.60;;;;;;3053368;19;4742;-25
2023/03/22 02:33:11;;;;;;;;;;;20.10;43.50;;;;;;3051058;19;4386;-26
2023/03/22 02:34:33;;;;;;;;;;;20.10;43.50;;;;;;3053560;19;873;-24
2023/03/22 02:35:40;;;;;;;;;;;20.20;43.60;;;;;;2848884;19;2004271;-25
2023/03/22 02:37:02;;;;;;;;;;;20.10;43.50;;;;;;3053154;19;4562;-25
2023/03/22 02:38:17;;;;;;;;;;;20.10;43.50;;;;;;3052791;19;5807;-25
2023/03/22 02:40:04;;;;;;;;;;;20.10;43.60;;;;;;2848851;19;2004343;-25
2023/03/22 02:41:12;;;;;;;;;;;20.10;43.50;;;;;;3051954;19;4545;-25
2023/03/22 02:42:19;;;;;;;;;;;20.10;43.50;;;;;;3052297;19;4727;-25
2023/03/22 02:43:37;;;;;;;;;;;20.10;43.60;;;;;;3052891;19;4539;-25
2023/03/22 02:44:41;;;;;;;;;;;20.10;43.60;;;;;;3052861;19;5263;-25
2023/03/22 02:45:53;;;;;;;;;;;20.10;43.60;;;;;;3052483;19;4336;-25
2023/03/22 02:47:03;;;;;;;;;;;20.10;43.50;;;;;;3052005;19;4401;-25
2023/03/22 02:48:17;;;;;;;;;;;20.10;43.50;;;;;;3052916;19;4502;-25
2023/03/22 02:49:26;;;;;;;;;;;20.10;43.60;;;;;;2847902;19;2004431;-25
2023/03/22 02:50:32;;;;;;;;;;;20.10;43.60;;;;;;3051992;19;4510;-25
2023/03/22 02:52:04;;;;;;;;;;;20.10;43.50;;;;;;3052717;19;4972;-25
2023/03/22 02:53:15;;;;;;;;;;;20.10;43.50;;;;;;3053635;19;5831;-25
2023/03/22 02:54:29;;;;;;;;;;;20.10;43.50;;;;;;2846724;19;2004213;-25
2023/03/22 02:55:43;;;;;;;;;;;20.10;43.50;;;;;;3052222;19;4525;-25
2023/03/22 02:56:47;;;;;;;;;;;20.10;43.50;;;;;;3052252;19;4507;-25
2023/03/22 02:58:07;;;;;;;;;;;20.10;43.40;;;;;;3052806;19;4378;-25
2023/03/22 02:59:08;;;;;;;;;;;20.00;43.40;;;;;;3051036;19;5865;-25
2023/03/22 03:00:10;;;;;;;;;;;20.00;43.40;;;;;;3051279;19;4419;-26
2023/03/22 03:01:26;;;;;;;;;;;20.10;43.40;;;;;;3052632;19;4609;-25
2023/03/22 03:02:27;;;;;;;;;;;20.10;43.40;;;;;;3050767;19;4615;-25
2023/03/22 03:03:28;;;;;;;;;;;20.00;43.40;;;;;;3052806;19;4585;-25
2023/03/22 03:04:34;;;;;;;;;;;20.00;43.30;;;;;;3051848;19;4635;-25
2023/03/22 03:05:35;;;;;;;;;;;20.00;43.30;;;;;;3052406;19;4282;-25
2023/03/22 03:06:38;;;;;;;;;;;20.00;43.40;;;;;;3052614;19;4549;-25
2023/03/22 03:07:40;;;;;;;;;;;20.00;43.30;;;;;;3052961;19;4536;-25
2023/03/22 03:08:41;;;;;;;;;;;20.00;43.30;;;;;;3051489;19;4552;-25
2023/03/22 03:09:42;;;;;;;;;;;20.00;43.30;;;;;;3052551;19;4503;-25
2023/03/22 03:10:42;;;;;;;;;;;20.00;43.30;;;;;;3050935;19;4555;-25
2023/03/22 03:11:45;;;;;;;;;;;20.00;43.40;;;;;;3052514;19;4521;-25
2023/03/22 03:12:46;;;;;;;;;;;20.00;43.30;;;;;;3052034;19;4491;-25
2023/03/22 03:13:47;;;;;;;;;;;20.00;43.40;;;;;;3050412;19;4367;-25
2023/03/22 03:14:48;;;;;;;;;;;20.00;43.30;;;;;;3053760;19;4436;-25
2023/03/22 03:15:51;;;;;;;;;;;20.00;43.30;;;;;;3053187;19;4491;-25
2023/03/22 03:17:03;;;;;;;;;;;20.00;43.20;;;;;;3051001;19;4517;-25
2023/03/22 03:18:13;;;;;;;;;;;20.00;43.40;;;;;;3052716;19;4616;-25
2023/03/22 03:19:20;;;;;;;;;;;20.00;43.40;;;;;;3051500;19;4489;-25
2023/03/22 03:20:41;;;;;;;;;;;20.00;43.30;;;;;;3051639;19;4691;-26
2023/03/22 03:21:56;;;;;;;;;;;19.90;43.20;;;;;;3051854;19;4411;-25
2023/03/22 03:23:23;;;;;;;;;;;19.90;43.20;;;;;;3053024;19;4492;-25
2023/03/22 03:24:30;;;;;;;;;;;19.90;43.20;;;;;;3050974;19;5868;-25
2023/03/22 03:25:45;;;;;;;;;;;19.90;43.20;;;;;;3051425;19;4498;-25
2023/03/22 03:27:13;;;;;;;;;;;19.90;43.20;;;;;;3052263;19;4343;-25
2023/03/22 03:28:36;;;;;;;;;;;20.00;43.30;;;;;;3050755;19;5972;-25
2023/03/22 03:29:38;;;;;;;;;;;19.90;43.20;;;;;;3053027;19;4416;-25
2023/03/22 03:30:47;;;;;;;;;;;19.90;43.30;;;;;;3052355;19;4571;-27
2023/03/22 03:32:06;;;;;;;;;;;19.90;43.20;;;;;;3052565;19;5107;-25
2023/03/22 03:33:08;;;;;;;;;;;19.90;43.20;;;;;;3051103;19;4470;-25
2023/03/22 03:34:17;;;;;;;;;;;19.90;43.20;;;;;;3050969;19;4400;-25
2023/03/22 03:35:44;;;;;;;;;;;19.90;43.20;;;;;;3052158;19;4459;-25
2023/03/22 03:36:50;;;;;;;;;;;19.90;43.30;;;;;;3053131;19;4522;-26
2023/03/22 03:38:12;;;;;;;;;;;19.90;43.20;;;;;;3051538;19;4428;-25
2023/03/22 03:39:13;;;;;;;;;;;19.90;43.20;;;;;;3050775;19;4563;-25
2023/03/22 03:40:16;;;;;;;;;;;19.90;43.30;;;;;;3052868;19;3948;-25
2023/03/22 03:41:19;;;;;;;;;;;19.90;43.20;;;;;;3051156;19;5953;-25
2023/03/22 03:42:20;;;;;;;;;;;19.90;43.20;;;;;;3052092;19;4528;-25
2023/03/22 03:43:20;;;;;;;;;;;19.90;43.20;;;;;;3051540;19;4459;-25
2023/03/22 03:44:21;;;;;;;;;;;19.80;43.20;;;;;;3051185;19;4377;-25
2023/03/22 03:45:22;;;;;;;;;;;19.80;43.10;;;;;;3051857;19;4588;-25
2023/03/22 03:46:23;;;;;;;;;;;19.90;43.20;;;;;;3052822;19;4505;-25
2023/03/22 03:47:24;;;;;;;;;;;19.80;43.20;;;;;;3053279;19;5982;-25
2023/03/22 03:48:28;;;;;;;;;;;19.80;43.30;;;;;;3052328;19;4452;-25
2023/03/22 03:49:29;;;;;;;;;;;19.90;43.20;;;;;;3053260;19;4507;-25
2023/03/22 03:50:30;;;;;;;;;;;19.80;43.20;;;;;;3049561;19;4492;-25
2023/03/22 03:51:31;;;;;;;;;;;19.80;43.90;;;;;;3051792;19;4486;-25
2023/03/22 03:52:31;;;;;;;;;;;19.80;43.20;;;;;;3052365;19;4690;-25
2023/03/22 03:53:32;;;;;;;;;;;19.80;43.20;;;;;;3051393;19;4557;-25
2023/03/22 03:54:33;;;;;;;;;;;19.80;43.20;;;;;;3053169;19;4532;-25
2023/03/22 03:55:34;;;;;;;;;;;19.80;43.20;;;;;;3051775;19;4510;-26
2023/03/22 03:56:34;;;;;;;;;;;19.80;43.20;;;;;;3052481;19;4384;-25
2023/03/22 03:57:35;;;;;;;;;;;19.80;43.20;;;;;;3051466;19;4571;-25
2023/03/22 03:58:36;;;;;;;;;;;19.80;43.20;;;;;;3051899;19;4437;-25
2023/03/22 03:59:36;;;;;;;;;;;19.80;43.20;;;;;;3053410;19;4546;-25
2023/03/22 04:00:37;;;;;;;;;;;19.80;43.20;;;;;;3052158;19;4389;-25
2023/03/22 04:01:38;;;;;;;;;;;19.80;43.20;;;;;;3052689;19;4426;-24
2023/03/22 04:02:40;;;;;;;;;;;19.80;43.20;;;;;;3053489;19;4627;-25
2023/03/22 04:03:41;;;;;;;;;;;19.80;43.20;;;;;;3051572;19;4727;-25
2023/03/22 04:04:41;;;;;;;;;;;19.80;43.20;;;;;;3052717;19;4409;-25
2023/03/22 04:05:42;;;;;;;;;;;19.80;43.20;;;;;;3053825;19;4464;-25
2023/03/22 04:06:43;;;;;;;;;;;19.80;43.10;;;;;;3052036;19;4403;-24
2023/03/22 04:07:44;;;;;;;;;;;19.80;43.20;;;;;;3052869;19;4535;-25
2023/03/22 04:08:44;;;;;;;;;;;19.80;43.20;;;;;;3051447;19;4534;-25
2023/03/22 04:09:45;;;;;;;;;;;19.70;43.20;;;;;;3051873;19;4354;-25
2023/03/22 04:10:50;;;;;;;;;;;19.70;43.10;;;;;;3051288;19;4623;-25
2023/03/22 04:11:51;;;;;;;;;;;19.70;43.10;;;;;;3051005;19;5859;-25
2023/03/22 04:12:51;;;;;;;;;;;19.70;43.10;;;;;;3051139;19;4300;-25
2023/03/22 04:13:52;;;;;;;;;;;19.70;43.10;;;;;;3052400;19;4532;-25
2023/03/22 04:14:54;;;;;;;;;;;19.70;43.10;;;;;;3052002;19;4466;-25
2023/03/22 04:15:56;;;;;;;;;;;19.70;43.10;;;;;;3052853;19;4466;-25
2023/03/22 04:16:57;;;;;;;;;;;19.80;43.10;;;;;;3051764;19;4489;-24
2023/03/22 04:17:58;;;;;;;;;;;19.70;43.10;;;;;;3051876;19;5880;-25
2023/03/22 04:18:59;;;;;;;;;;;19.70;43.10;;;;;;3050721;19;4329;-25
2023/03/22 04:20:05;;;;;;;;;;;19.70;43.00;;;;;;3051458;19;5871;-25
2023/03/22 04:21:06;;;;;;;;;;;19.70;43.10;;;;;;3052278;19;4151;-25
2023/03/22 04:22:13;;;;;;;;;;;19.70;43.00;;;;;;3051133;19;4857;-25
2023/03/22 04:23:14;;;;;;;;;;;19.70;43.00;;;;;;3053014;19;4466;-25
2023/03/22 04:24:15;;;;;;;;;;;19.70;43.00;;;;;;3053341;19;4540;-25
2023/03/22 04:25:17;;;;;;;;;;;19.70;43.00;;;;;;3051246;19;4364;-25
2023/03/22 04:26:17;;;;;;;;;;;19.70;43.00;;;;;;3051385;19;4590;-25
2023/03/22 04:27:19;;;;;;;;;;;19.70;43.00;;;;;;3051456;19;4585;-25
2023/03/22 04:28:20;;;;;;;;;;;19.70;43.10;;;;;;3052640;19;4434;-25
2023/03/22 04:29:21;;;;;;;;;;;19.70;43.00;;;;;;3053018;19;4552;-25
2023/03/22 04:30:23;;;;;;;;;;;19.70;43.10;;;;;;3051350;19;5825;-25
2023/03/22 04:31:24;;;;;;;;;;;19.70;43.00;;;;;;3052106;19;4525;-25
2023/03/22 04:32:25;;;;;;;;;;;19.70;43.10;;;;;;3052514;19;4532;-25
2023/03/22 04:33:25;;;;;;;;;;;19.70;43.00;;;;;;3051854;19;5929;-25
2023/03/22 04:34:26;;;;;;;;;;;19.70;43.00;;;;;;3052821;19;4570;-25
2023/03/22 04:35:27;;;;;;;;;;;19.60;42.90;;;;;;3052555;19;4418;-25
2023/03/22 04:36:29;;;;;;;;;;;19.70;43.00;;;;;;3051981;19;4406;-25
2023/03/22 04:37:30;;;;;;;;;;;19.60;43.00;;;;;;3053082;19;4479;-24
2023/03/22 04:38:31;;;;;;;;;;;19.60;42.90;;;;;;3051602;19;4587;-25
2023/03/22 04:39:32;;;;;;;;;;;19.60;42.90;;;;;;3052878;19;4623;-27
2023/03/22 04:40:35;;;;;;;;;;;19.70;42.90;;;;;;3052482;19;4508;-25
2023/03/22 04:41:36;;;;;;;;;;;19.70;42.90;;;;;;3052191;19;4296;-25
2023/03/22 04:42:36;;;;;;;;;;;19.70;42.80;;;;;;3052741;19;4524;-25
2023/03/22 04:43:38;;;;;;;;;;;19.80;42.70;;;;;;3051129;19;4918;-25
2023/03/22 04:44:38;;;;;;;;;;;19.90;42.60;;;;;;3052710;19;4603;-25
2023/03/22 04:45:40;;;;;;;;;;;20.00;42.40;;;;;;3053516;19;4431;-25
2023/03/22 04:46:43;;;;;;;;;;;20.00;42.50;;;;;;3054931;19;4541;-25
2023/03/22 04:47:44;;;;;;;;;;;20.10;41.90;;;;;;3054213;19;4547;-24
2023/03/22 04:48:44;;;;;;;;;;;20.20;41.80;;;;;;3055396;19;4569;-25
2023/03/22 04:49:45;;;;;;;;;;;20.20;41.70;;;;;;3054116;19;4364;-25
2023/03/22 04:50:45;;;;;;;;;;;20.20;41.70;;;;;;3054241;19;4565;-24
2023/03/22 04:51:46;;;;;;;;;;;20.20;41.50;;;;;;3054776;19;4517;-25
2023/03/22 04:52:48;;;;;;;;;;;20.20;41.60;;;;;;3053982;19;4585;-25
2023/03/22 04:53:49;;;;;;;;;;;20.30;41.50;;;;;;3054212;19;4477;-24
2023/03/22 04:54:50;;;;;;;;;;;20.30;41.40;;;;;;3053047;19;4469;-24
2023/03/22 04:55:50;;;;;;;;;;;20.20;41.40;;;;;;3055183;19;4593;-25
2023/03/22 04:56:51;;;;;;;;;;;20.30;41.50;;;;;;3054199;19;4470;-25
2023/03/22 04:57:53;;;;;;;;;;;20.20;41.40;;;;;;3055253;19;4501;-24
2023/03/22 04:58:54;;;;;;;;;;;20.30;41.40;;;;;;3055143;19;4349;-25
2023/03/22 04:59:54;;;;;;;;;;;20.40;41.30;;;;;;3053891;19;4647;-25
2023/03/22 05:00:55;;;;;;;;;;;20.50;41.20;;;;;;3054853;19;4486;-25
2023/03/22 05:01:56;;;;;;;;;;;20.50;41.00;;;;;;3054752;19;4309;-25
2023/03/22 05:02:57;;;;;;;;;;;20.50;40.80;;;;;;3054673;19;4316;-25
2023/03/22 05:03:57;;;;;;;;;;;20.60;40.90;;;;;;3054766;19;4529;-25
2023/03/22 05:04:58;;;;;;;;;;;20.60;40.90;;;;;;3054021;19;4483;-25
2023/03/22 05:05:59;;;;;;;;;;;20.60;40.80;;;;;;3054611;19;4517;-25
2023/03/22 05:07:00;;;;;;;;;;;20.60;40.80;;;;;;3055118;19;4477;-25
2023/03/22 05:08:01;;;;;;;;;;;20.60;40.80;;;;;;3055483;19;4434;-25
2023/03/22 05:09:01;;;;;;;;;;;20.50;40.80;;;;;;3053328;19;4339;-25
2023/03/22 05:10:02;;;;;;;;;;;20.50;40.70;;;;;;3055045;19;4378;-24
2023/03/22 05:11:08;;;;;;;;;;;20.50;40.70;;;;;;3053765;19;4435;-25
2023/03/22 05:12:09;;;;;;;;;;;20.50;40.80;;;;;;3052880;19;5689;-25
2023/03/22 05:13:09;;;;;;;;;;;20.50;40.70;;;;;;3053261;19;4447;-25
2023/03/22 05:14:10;;;;;;;;;;;20.50;40.70;;;;;;3053933;19;4353;-25
2023/03/22 05:15:11;;;;;;;;;;;20.50;40.70;;;;;;3054911;19;5955;-26
2023/03/22 05:16:11;;;;;;;;;;;20.50;40.70;;;;;;3052567;19;4364;-25
2023/03/22 05:17:12;;;;;;;;;;;20.50;40.70;;;;;;3053053;19;4424;-25
2023/03/22 05:18:13;;;;;;;;;;;20.50;40.80;;;;;;3053272;19;4534;-25
2023/03/22 05:19:13;;;;;;;;;;;20.50;40.70;;;;;;3053702;19;4351;-25
2023/03/22 05:20:14;;;;;;;;;;;20.40;40.70;;;;;;3054270;19;4550;-25
2023/03/22 05:21:16;;;;;;;;;;;20.50;40.70;;;;;;3056092;19;3912;-25
2023/03/22 05:22:18;;;;;;;;;;;20.40;40.60;;;;;;3054407;19;4405;-25
2023/03/22 05:23:19;;;;;;;;;;;20.40;40.70;;;;;;3054551;19;4560;-25
2023/03/22 05:24:20;;;;;;;;;;;20.40;40.70;;;;;;3053940;19;4422;-25
2023/03/22 05:25:21;;;;;;;;;;;20.40;40.70;;;;;;3053829;19;4501;-26
2023/03/22 05:26:23;;;;;;;;;;;20.40;40.70;;;;;;3053214;19;4432;-25
2023/03/22 05:27:30;;;;;;;;;;;20.40;40.70;;;;;;3053485;19;4608;-25
2023/03/22 05:28:30;;;;;;;;;;;20.40;40.70;;;;;;3053133;19;4488;-25
2023/03/22 05:29:35;;;;;;;;;;;20.40;40.70;;;;;;3053734;19;4381;-25
2023/03/22 05:30:36;;;;;;;;;;;20.40;40.70;;;;;;3053105;19;4526;-25
2023/03/22 05:31:36;;;;;;;;;;;20.40;40.70;;;;;;3053561;19;4381;-25
2023/03/22 05:32:41;;;;;;;;;;;20.30;40.80;;;;;;3053285;19;4542;-25
2023/03/22 05:33:45;;;;;;;;;;;20.30;40.70;;;;;;3054001;19;4606;-25
2023/03/22 05:34:47;;;;;;;;;;;20.30;40.80;;;;;;3052173;19;4494;-25
2023/03/22 05:35:48;;;;;;;;;;;20.30;40.80;;;;;;3054737;19;4495;-25
2023/03/22 05:36:50;;;;;;;;;;;20.30;40.80;;;;;;3052697;19;4492;-25
2023/03/22 05:37:51;;;;;;;;;;;20.40;40.80;;;;;;3054443;19;4363;-25
2023/03/22 05:38:52;;;;;;;;;;;20.40;40.70;;;;;;3054791;19;4477;-25
2023/03/22 05:39:52;;;;;;;;;;;20.40;40.60;;;;;;3052805;19;4486;-25
2023/03/22 05:40:53;;;;;;;;;;;20.50;40.50;;;;;;3054681;19;4487;-25
2023/03/22 05:41:54;;;;;;;;;;;20.50;40.40;;;;;;3053935;19;4340;-26
2023/03/22 05:42:54;;;;;;;;;;;20.60;40.30;;;;;;3053324;19;4494;-25
2023/03/22 05:43:55;;;;;;;;;;;20.70;40.20;;;;;;3052956;19;4513;-25
2023/03/22 05:44:56;;;;;;;;;;;20.70;40.20;;;;;;3051745;19;4759;-25
2023/03/22 05:45:56;;;;;;;;;;;20.70;40.20;;;;;;3053708;19;4565;-25
2023/03/22 05:46:57;;;;;;;;;;;20.70;40.20;;;;;;3054600;19;4524;-25
2023/03/22 05:47:58;;;;;;;;;;;20.70;40.20;;;;;;3053752;19;4467;-30
2023/03/22 05:48:58;;;;;;;;;;;20.70;40.20;;;;;;3052719;19;4494;-25
2023/03/22 05:49:59;;;;;;;;;;;20.70;40.20;;;;;;3053517;19;4491;-25
2023/03/22 05:51:02;;;;;;;;;;;20.70;40.10;;;;;;3051537;19;4481;-25
2023/03/22 05:52:06;;;;;;;;;;;20.70;40.00;;;;;;3053935;19;4515;-25
2023/03/22 05:53:06;;;;;;;;;;;20.70;40.00;;;;;;3052735;19;4306;-25
2023/03/22 05:54:08;;;;;;;;;;;20.70;40.00;;;;;;3050340;19;11627;-25
2023/03/22 05:55:11;;;;;;;;;;;20.70;39.90;;;;;;3053191;19;4542;-25
2023/03/22 05:56:12;;;;;;;;;;;20.80;40.00;;;;;;3054388;19;4381;-25
2023/03/22 05:57:13;;;;;;;;;;;20.70;39.90;;;;;;3053703;19;4535;-25
2023/03/22 05:58:17;;;;;;;;;;;20.70;40.10;;;;;;3053719;19;4531;-25
2023/03/22 05:59:18;;;;;;;;;;;20.70;40.00;;;;;;3054783;19;4538;-25
2023/03/22 06:00:19;;;;;;;;;;;20.70;39.90;;;;;;3052512;19;4529;-25
2023/03/22 06:01:20;;;;;;;;;;;20.70;40.10;;;;;;3054050;19;4372;-25
2023/03/22 06:02:21;;;;;;;;;;;20.70;40.00;;;;;;3053443;19;4605;-25
2023/03/22 06:03:21;;;;;;;;;;;20.70;39.90;;;;;;3052436;19;4585;-25
2023/03/22 06:04:22;;;;;;;;;;;20.70;39.90;;;;;;3052879;19;4388;-25
2023/03/22 06:05:23;;;;;;;;;;;20.70;40.00;;;;;;3053322;19;4667;-25
2023/03/22 06:06:23;;;;;;;;;;;20.60;40.00;;;;;;3053377;19;4383;-25
2023/03/22 06:07:25;;;;;;;;;;;20.60;40.10;;;;;;3054310;19;4680;-25
2023/03/22 06:08:25;;;;;;;;;;;20.60;40.10;;;;;;3053146;19;4527;-25
2023/03/22 06:09:26;;;;;;;;;;;20.60;40.10;;;;;;3052627;19;4293;-25
2023/03/22 06:10:27;;;;;;;;;;;20.60;40.10;;;;;;3052996;19;4597;-25
2023/03/22 06:11:29;;;;;;;;;;;20.60;40.10;;;;;;3054310;19;4543;-25
2023/03/22 06:12:30;;;;;;;;;;;20.60;40.00;;;;;;3053918;19;4374;-25
2023/03/22 06:13:31;;;;;;;;;;;20.70;39.90;;;;;;3053738;19;4504;-25
2023/03/22 06:14:31;;;;;;;;;;;20.70;40.00;;;;;;3052780;19;4535;-25
2023/03/22 06:15:32;;;;;;;;;;;20.70;39.90;;;;;;3053366;19;4686;-25